createdAt,value
2018-09-06T00:01:46.685Z,16.30
2018-09-06T00:04:15.835Z,16.20
2018-09-06T00:06:44.948Z,16.20
2018-09-06T00:09:14.090Z,16.20
2018-09-06T00:11:43.226Z,16.20
2018-09-06T00:14:12.371Z,16.10
2018-09-06T00:16:41.472Z,16.10
2018-09-06T00:19:10.568Z,16.20
2018-09-06T00:21:39.740Z,16.20
2018-09-06T00:24:08.918Z,16.20
2018-09-06T00:26:38.033Z,16.10
2018-09-06T00:29:12.810Z,16.00
2018-09-06T00:31:41.909Z,16.00
2018-09-06T00:34:11.028Z,15.90
2018-09-06T00:36:40.144Z,15.90
2018-09-06T00:39:09.296Z,16.00
2018-09-06T00:41:38.418Z,15.90
2018-09-06T00:44:07.563Z,15.80
2018-09-06T00:46:36.695Z,15.90
2018-09-06T00:49:05.921Z,15.90
2018-09-06T00:51:35.019Z,15.90
2018-09-06T00:54:04.187Z,15.90
2018-09-06T00:56:33.337Z,15.80
2018-09-06T00:59:02.522Z,15.70
2018-09-06T01:01:31.642Z,15.70
2018-09-06T01:04:01.332Z,15.60
2018-09-06T01:06:30.430Z,15.70
2018-09-06T01:08:59.557Z,15.70
2018-09-06T01:11:28.683Z,15.60
2018-09-06T01:13:57.773Z,15.70
2018-09-06T01:16:26.877Z,15.60
2018-09-06T01:18:55.967Z,15.60
2018-09-06T01:21:25.084Z,15.50
2018-09-06T01:23:54.195Z,15.50
2018-09-06T01:26:23.324Z,15.50
2018-09-06T01:28:52.425Z,15.50
2018-09-06T01:31:21.570Z,15.50
2018-09-06T01:33:50.910Z,15.40
2018-09-06T01:36:25.317Z,15.30
2018-09-06T01:38:54.470Z,15.20
2018-09-06T01:41:23.793Z,15.20
2018-09-06T01:43:52.881Z,15.30
2018-09-06T01:46:21.985Z,15.30
2018-09-06T01:48:51.061Z,15.30
2018-09-06T01:51:20.213Z,15.20
2018-09-06T01:53:49.357Z,15.30
2018-09-06T01:56:18.445Z,15.10
2018-09-06T01:58:47.546Z,15.00
2018-09-06T02:01:16.827Z,15.00
2018-09-06T02:03:45.946Z,14.90
2018-09-06T02:06:15.074Z,15.00
2018-09-06T02:08:44.279Z,15.00
2018-09-06T02:11:13.353Z,15.00
2018-09-06T02:13:42.453Z,15.00
2018-09-06T02:16:11.581Z,15.00
2018-09-06T02:18:40.768Z,15.10
2018-09-06T02:21:09.904Z,15.00
2018-09-06T02:23:39.010Z,14.90
2018-09-06T02:26:08.190Z,14.90
2018-09-06T02:28:38.052Z,14.80
2018-09-06T02:31:07.175Z,14.80
2018-09-06T02:33:36.355Z,14.80
2018-09-06T02:36:05.428Z,14.80
2018-09-06T02:38:34.563Z,14.70
2018-09-06T02:41:03.675Z,14.70
2018-09-06T02:43:32.845Z,14.80
2018-09-06T02:46:01.938Z,14.80
2018-09-06T02:48:36.250Z,14.80
2018-09-06T02:51:10.858Z,14.80
2018-09-06T02:53:40.426Z,14.70
2018-09-06T02:56:09.929Z,14.70
2018-09-06T02:58:39.575Z,14.70
2018-09-06T03:01:08.927Z,14.70
2018-09-06T03:03:38.171Z,14.70
2018-09-06T03:06:07.955Z,14.60
2018-09-06T03:08:37.122Z,14.70
2018-09-06T03:11:09.879Z,14.70
2018-09-06T03:13:38.976Z,14.70
2018-09-06T03:16:08.066Z,14.70
2018-09-06T03:18:37.234Z,14.60
2018-09-06T03:21:06.510Z,14.60
2018-09-06T03:23:35.649Z,14.50
2018-09-06T03:26:08.950Z,14.40
2018-09-06T03:28:38.076Z,14.40
2018-09-06T03:31:07.177Z,14.30
2018-09-06T03:33:36.359Z,14.40
2018-09-06T03:36:05.596Z,14.40
2018-09-06T03:38:34.675Z,14.50
2018-09-06T03:41:03.785Z,14.60
2018-09-06T03:43:32.958Z,14.60
2018-09-06T03:46:02.075Z,14.60
2018-09-06T03:48:31.229Z,14.60
2018-09-06T03:51:00.378Z,14.60
2018-09-06T03:53:29.551Z,14.50
2018-09-06T03:56:01.487Z,14.40
2018-09-06T03:58:30.649Z,14.30
2018-09-06T04:00:59.743Z,14.20
2018-09-06T04:03:28.930Z,14.20
2018-09-06T04:05:58.113Z,14.20
2018-09-06T04:08:27.240Z,14.20
2018-09-06T04:10:56.309Z,14.20
2018-09-06T04:13:25.446Z,14.20
2018-09-06T04:15:54.593Z,14.10
2018-09-06T04:18:23.750Z,14.10
2018-09-06T04:20:52.834Z,14.10
2018-09-06T04:23:21.975Z,14.10
2018-09-06T04:25:51.087Z,14.00
2018-09-06T04:28:20.263Z,14.10
2018-09-06T04:30:49.416Z,14.20
2018-09-06T04:33:18.546Z,14.20
2018-09-06T04:35:47.631Z,14.20
2018-09-06T04:38:16.709Z,14.20
2018-09-06T04:40:46.461Z,14.20
2018-09-06T04:43:15.556Z,14.20
2018-09-06T04:45:44.572Z,14.00
2018-09-06T04:48:13.529Z,14.10
2018-09-06T04:50:42.526Z,14.00
2018-09-06T04:53:11.830Z,14.00
2018-09-06T04:55:40.823Z,14.00
2018-09-06T04:58:09.737Z,14.10
2018-09-06T05:00:38.691Z,14.10
2018-09-06T05:03:07.683Z,14.20
2018-09-06T05:05:36.676Z,14.20
2018-09-06T05:08:05.786Z,14.20
2018-09-06T05:10:34.773Z,14.30
2018-09-06T05:13:03.716Z,14.30
2018-09-06T05:15:32.696Z,14.30
2018-09-06T05:18:01.827Z,14.50
2018-09-06T05:20:30.856Z,14.60
2018-09-06T05:22:59.779Z,14.60
2018-09-06T05:25:29.196Z,14.60
2018-09-06T05:27:58.152Z,14.60
2018-09-06T05:30:27.120Z,14.70
2018-09-06T05:32:56.109Z,14.90
2018-09-06T05:35:25.083Z,15.00
2018-09-06T05:37:54.011Z,15.30
2018-09-06T05:40:22.968Z,15.50
2018-09-06T05:42:52.274Z,15.60
2018-09-06T05:45:21.304Z,15.80
2018-09-06T05:47:55.799Z,15.90
2018-09-06T05:50:24.742Z,16.10
2018-09-06T05:52:53.756Z,16.40
2018-09-06T05:55:22.973Z,16.70
2018-09-06T05:57:52.163Z,17.20
2018-09-06T06:00:26.436Z,17.70
2018-09-06T06:02:56.797Z,18.20
2018-09-06T06:05:25.821Z,18.80
2018-09-06T06:08:06.268Z,19.50
2018-09-06T06:10:35.252Z,20.20
2018-09-06T06:13:04.240Z,21.00
2018-09-06T06:15:34.822Z,21.60
2018-09-06T06:18:04.053Z,22.10
2018-09-06T06:20:34.246Z,22.50
2018-09-06T06:23:03.191Z,23.00
2018-09-06T06:25:32.176Z,23.50
2018-09-06T06:28:01.636Z,24.10
2018-09-06T06:30:32.303Z,24.80
2018-09-06T06:33:01.252Z,25.50
2018-09-06T06:35:30.272Z,26.00
2018-09-06T06:37:59.211Z,26.40
2018-09-06T06:40:28.168Z,26.70
2018-09-06T06:42:57.144Z,27.10
2018-09-06T06:45:26.121Z,27.60
2018-09-06T06:47:55.090Z,28.00
2018-09-06T06:50:24.114Z,28.50
2018-09-06T06:52:53.134Z,28.80
2018-09-06T06:55:22.103Z,29.10
2018-09-06T06:57:51.073Z,29.20
2018-09-06T07:00:21.592Z,29.30
2018-09-06T07:02:51.074Z,29.50
2018-09-06T07:05:20.083Z,29.80
2018-09-06T07:07:49.621Z,30.00
2018-09-06T07:10:18.647Z,30.00
2018-09-06T07:12:47.679Z,29.10
2018-09-06T07:15:16.645Z,28.20
2018-09-06T07:17:46.186Z,27.80
2018-09-06T07:20:15.785Z,28.10
2018-09-06T07:22:44.819Z,28.80
2018-09-06T07:25:13.859Z,29.30
2018-09-06T07:27:42.853Z,29.70
2018-09-06T07:32:43.379Z,29.20
2018-09-06T07:35:22.521Z,28.80
2018-09-06T07:37:59.080Z,28.30
2018-09-06T07:40:41.787Z,27.80
2018-09-06T07:46:17.266Z,26.80
2018-09-06T07:49:05.283Z,26.60
2018-09-06T07:54:34.984Z,26.50
2018-09-06T07:57:09.859Z,26.60
2018-09-06T07:59:58.796Z,26.70
2018-09-06T08:02:27.827Z,26.60
2018-09-06T08:04:56.863Z,26.60
2018-09-06T08:07:25.826Z,26.60
2018-09-06T08:09:54.832Z,26.60
2018-09-06T08:12:23.895Z,26.70
2018-09-06T08:14:52.862Z,26.70
2018-09-06T08:17:21.811Z,26.70
2018-09-06T08:19:50.757Z,27.00
2018-09-06T08:22:19.740Z,27.50
2018-09-06T08:24:48.700Z,27.80
2018-09-06T08:27:20.173Z,27.40
2018-09-06T08:29:58.597Z,26.80
2018-09-06T08:32:27.545Z,26.20
2018-09-06T08:34:57.500Z,25.80
2018-09-06T08:37:27.616Z,25.60
2018-09-06T08:39:56.568Z,25.40
2018-09-06T08:42:25.496Z,25.30
2018-09-06T08:44:54.421Z,25.20
2018-09-06T08:47:23.847Z,25.10
2018-09-06T08:49:54.489Z,25.00
2018-09-06T08:52:23.541Z,25.00
2018-09-06T08:54:52.417Z,25.10
2018-09-06T08:57:21.359Z,25.20
2018-09-06T08:59:50.287Z,25.30
2018-09-06T09:02:20.162Z,25.40
2018-09-06T09:04:49.777Z,25.60
2018-09-06T09:07:19.687Z,25.60
2018-09-06T09:09:48.621Z,25.70
2018-09-06T09:12:17.626Z,26.00
2018-09-06T09:14:46.544Z,26.10
2018-09-06T09:17:15.457Z,26.10
2018-09-06T09:19:46.224Z,26.20
2018-09-06T09:22:15.923Z,26.30
2018-09-06T09:24:44.873Z,26.30
2018-09-06T09:27:14.607Z,26.20
2018-09-06T09:29:45.369Z,26.20
2018-09-06T09:32:15.643Z,26.20
2018-09-06T09:34:47.968Z,26.30
2018-09-06T09:37:17.393Z,26.40
2018-09-06T09:39:46.745Z,26.40
2018-09-06T09:42:16.482Z,26.40
2018-09-06T09:44:46.304Z,26.40
2018-09-06T09:49:43.559Z,26.40
2018-09-06T09:52:12.528Z,26.50
2018-09-06T09:54:41.521Z,26.50
2018-09-06T09:57:10.983Z,26.50
2018-09-06T09:59:39.882Z,26.60
2018-09-06T10:02:14.068Z,26.50
2018-09-06T10:04:48.286Z,26.40
2018-09-06T10:07:22.735Z,26.50
2018-09-06T10:09:51.835Z,26.70
2018-09-06T10:12:22.304Z,26.80
2018-09-06T10:14:51.361Z,26.80
2018-09-06T10:17:20.691Z,26.90
2018-09-06T10:19:50.938Z,27.00
2018-09-06T10:22:22.781Z,27.20
2018-09-06T10:24:52.385Z,27.20
2018-09-06T10:27:23.586Z,27.10
2018-09-06T10:29:52.929Z,27.00
2018-09-06T10:32:23.033Z,27.10
2018-09-06T10:34:52.743Z,27.00
2018-09-06T10:37:23.129Z,27.00
2018-09-06T10:39:52.197Z,26.90
2018-09-06T10:42:21.124Z,26.90
2018-09-06T10:44:50.102Z,26.80
2018-09-06T10:47:23.791Z,26.80
2018-09-06T10:49:52.789Z,26.90
2018-09-06T10:52:21.864Z,26.70
2018-09-06T10:54:51.347Z,26.70
2018-09-06T10:57:22.780Z,26.80
2018-09-06T10:59:53.696Z,26.80
2018-09-06T11:02:24.529Z,26.80
2018-09-06T11:04:54.930Z,26.70
2018-09-06T11:09:52.778Z,26.80
2018-09-06T11:12:21.765Z,26.90
2018-09-06T11:14:50.750Z,26.90
2018-09-06T11:17:20.268Z,26.90
2018-09-06T11:19:50.605Z,27.00
2018-09-06T11:22:19.698Z,27.00
2018-09-06T11:24:48.697Z,27.00
2018-09-06T11:27:17.707Z,27.00
2018-09-06T11:29:47.074Z,27.10
2018-09-06T11:32:16.184Z,27.10
2018-09-06T11:34:45.931Z,27.00
2018-09-06T11:37:14.991Z,26.90
2018-09-06T11:39:44.579Z,26.90
2018-09-06T11:42:13.741Z,26.80
2018-09-06T11:44:43.054Z,26.80
2018-09-06T11:47:13.295Z,26.90
2018-09-06T11:49:42.503Z,27.00
2018-09-06T11:52:14.213Z,27.00
2018-09-06T11:54:44.165Z,27.00
2018-09-06T11:57:13.313Z,26.90
2018-09-06T11:59:42.313Z,27.00
2018-09-06T12:02:11.729Z,27.10
2018-09-06T12:04:40.659Z,27.20
2018-09-06T12:07:09.767Z,27.10
2018-09-06T12:09:40.093Z,27.10
2018-09-06T12:12:15.097Z,26.90
2018-09-06T12:14:44.068Z,27.00
2018-09-06T12:17:13.138Z,27.00
2018-09-06T12:19:42.131Z,27.00
2018-09-06T12:22:11.146Z,27.00
2018-09-06T12:24:44.882Z,27.00
2018-09-06T12:27:14.795Z,27.00
2018-09-06T12:29:43.781Z,26.90
2018-09-06T12:32:12.791Z,26.90
2018-09-06T12:34:41.769Z,26.90
2018-09-06T12:37:12.320Z,26.80
2018-09-06T12:39:44.716Z,26.90
2018-09-06T12:42:13.925Z,26.90
2018-09-06T12:44:43.316Z,26.80
2018-09-06T12:47:12.364Z,26.70
2018-09-06T12:49:41.643Z,26.70
2018-09-06T12:52:10.650Z,26.60
2018-09-06T12:54:39.644Z,26.50
2018-09-06T12:57:08.663Z,26.50
2018-09-06T12:59:38.899Z,26.40
2018-09-06T13:02:07.919Z,26.40
2018-09-06T13:04:38.241Z,26.30
2018-09-06T13:07:07.254Z,26.30
2018-09-06T13:09:36.282Z,26.30
2018-09-06T13:12:05.506Z,26.30
2018-09-06T13:14:34.764Z,26.20
2018-09-06T13:17:03.817Z,26.20
2018-09-06T13:19:32.925Z,26.20
2018-09-06T13:22:01.931Z,26.10
2018-09-06T13:24:30.921Z,26.10
2018-09-06T13:26:59.943Z,26.10
2018-09-06T13:29:28.960Z,26.00
2018-09-06T13:31:58.009Z,26.00
2018-09-06T13:34:27.057Z,26.00
2018-09-06T13:36:56.062Z,26.00
2018-09-06T13:39:25.165Z,26.00
2018-09-06T13:41:54.952Z,26.00
2018-09-06T13:44:23.966Z,26.00
2018-09-06T13:46:53.781Z,26.10
2018-09-06T13:49:22.795Z,26.10
2018-09-06T13:51:52.457Z,26.10
2018-09-06T13:54:21.454Z,26.20
2018-09-06T13:56:50.456Z,26.20
2018-09-06T13:59:19.677Z,26.30
2018-09-06T14:01:48.777Z,26.40
2018-09-06T14:04:17.760Z,26.40
2018-09-06T14:06:46.773Z,26.40
2018-09-06T14:09:16.620Z,26.50
2018-09-06T14:11:45.635Z,26.50
2018-09-06T14:14:14.696Z,26.40
2018-09-06T14:16:43.890Z,26.40
2018-09-06T14:19:12.786Z,26.40
2018-09-06T14:21:41.786Z,26.30
2018-09-06T14:24:10.981Z,26.30
2018-09-06T14:26:39.901Z,26.40
2018-09-06T14:29:08.889Z,26.40
2018-09-06T14:31:37.866Z,26.40
2018-09-06T14:34:06.969Z,26.40
2018-09-06T14:36:35.909Z,26.50
2018-09-06T14:39:07.206Z,26.40
2018-09-06T14:41:36.431Z,26.50
2018-09-06T14:44:05.674Z,26.40
2018-09-06T14:46:34.722Z,26.40
2018-09-06T14:49:03.762Z,26.30
2018-09-06T14:51:32.712Z,26.20
2018-09-06T14:54:01.797Z,26.20
2018-09-06T14:56:30.790Z,26.10
2018-09-06T14:58:59.793Z,26.10
2018-09-06T15:01:28.804Z,26.00
2018-09-06T15:03:57.797Z,25.90
2018-09-06T15:06:28.268Z,25.90
2018-09-06T15:08:57.307Z,25.80
2018-09-06T15:11:26.295Z,25.70
2018-09-06T15:13:55.362Z,25.70
2018-09-06T15:16:24.283Z,25.60
2018-09-06T15:18:53.301Z,25.60
2018-09-06T15:21:22.307Z,25.50
2018-09-06T15:23:51.312Z,25.50
2018-09-06T15:26:20.306Z,25.50
2018-09-06T15:28:50.556Z,25.40
2018-09-06T15:31:20.665Z,25.30
2018-09-06T15:33:49.671Z,25.30
2018-09-06T15:36:18.658Z,25.20
2018-09-06T15:38:48.254Z,25.10
2018-09-06T15:41:17.287Z,25.10
2018-09-06T15:43:46.290Z,25.10
2018-09-06T15:46:15.280Z,25.00
2018-09-06T15:48:45.138Z,24.90
2018-09-06T15:51:14.144Z,24.80
2018-09-06T15:53:43.213Z,24.80
2018-09-06T15:56:12.233Z,24.70
2018-09-06T15:58:41.237Z,24.70
2018-09-06T16:01:10.238Z,24.60
2018-09-06T16:03:53.371Z,24.50
2018-09-06T16:06:23.376Z,24.50
2018-09-06T16:08:52.575Z,24.40
2018-09-06T16:11:22.384Z,24.40
2018-09-06T16:13:51.402Z,24.30
2018-09-06T16:16:20.381Z,24.10
2018-09-06T16:18:49.394Z,23.90
2018-09-06T16:21:18.348Z,23.80
2018-09-06T16:23:47.397Z,23.60
2018-09-06T16:26:16.448Z,23.40
2018-09-06T16:28:45.446Z,23.20
2018-09-06T16:31:14.440Z,23.10
2018-09-06T16:33:45.949Z,22.90
2018-09-06T16:36:16.093Z,22.80
2018-09-06T16:38:45.613Z,22.70
2018-09-06T16:41:16.412Z,22.60
2018-09-06T16:43:45.506Z,22.50
2018-09-06T16:46:14.498Z,22.40
2018-09-06T16:48:43.606Z,22.30
2018-09-06T16:51:12.853Z,22.30
2018-09-06T16:53:41.928Z,22.30
2018-09-06T16:56:10.980Z,22.10
2018-09-06T16:58:39.954Z,22.10
2018-09-06T17:01:09.031Z,22.00
2018-09-06T17:03:38.030Z,21.80
2018-09-06T17:06:08.349Z,21.60
2018-09-06T17:08:37.665Z,21.30
2018-09-06T17:11:06.814Z,21.00
2018-09-06T17:13:36.293Z,20.80
2018-09-06T17:16:05.630Z,20.60
2018-09-06T17:18:34.634Z,20.50
2018-09-06T17:21:03.796Z,20.20
2018-09-06T17:23:32.958Z,20.20
2018-09-06T17:26:02.833Z,20.10
2018-09-06T17:28:31.853Z,20.10
2018-09-06T17:31:01.794Z,20.10
2018-09-06T17:33:30.791Z,20.00
2018-09-06T17:35:59.881Z,20.00
2018-09-06T17:38:28.963Z,19.90
2018-09-06T17:40:57.940Z,19.90
2018-09-06T17:43:26.930Z,19.90
2018-09-06T17:45:58.437Z,20.00
2018-09-06T17:48:27.495Z,20.00
2018-09-06T17:50:56.521Z,20.10
2018-09-06T17:53:25.519Z,20.10
2018-09-06T17:55:54.496Z,20.10
2018-09-06T17:58:23.492Z,20.10
2018-09-06T18:01:43.214Z,20.10
2018-09-06T18:04:17.701Z,20.10
2018-09-06T18:06:46.724Z,20.10
2018-09-06T18:09:16.365Z,20.00
2018-09-06T18:11:45.373Z,20.00
2018-09-06T18:14:14.344Z,20.10
2018-09-06T18:16:43.449Z,20.20
2018-09-06T18:19:12.410Z,20.20
2018-09-06T18:21:41.424Z,20.20
2018-09-06T18:24:11.362Z,20.30
2018-09-06T18:26:43.111Z,20.30
2018-09-06T18:29:12.111Z,20.30
2018-09-06T18:31:41.179Z,20.30
2018-09-06T18:34:10.113Z,20.30
2018-09-06T18:36:39.109Z,20.30
2018-09-06T18:39:08.202Z,20.20
2018-09-06T18:41:37.191Z,20.20
2018-09-06T18:44:06.452Z,20.20
2018-09-06T18:46:35.376Z,20.20
2018-09-06T18:49:04.358Z,20.20
2018-09-06T18:51:33.468Z,20.10
2018-09-06T18:54:02.614Z,20.10
2018-09-06T18:56:31.581Z,20.10
2018-09-06T18:59:00.564Z,20.10
2018-09-06T19:01:29.529Z,20.10
2018-09-06T19:03:58.538Z,20.10
2018-09-06T19:06:27.544Z,20.10
2018-09-06T19:08:58.393Z,20.10
2018-09-06T19:11:27.402Z,20.10
2018-09-06T19:13:56.506Z,20.10
2018-09-06T19:16:25.506Z,20.00
2018-09-06T19:18:54.504Z,19.90
2018-09-06T19:21:24.415Z,19.90
2018-09-06T19:23:53.474Z,19.90
2018-09-06T19:26:22.561Z,19.90
2018-09-06T19:28:51.533Z,19.90
2018-09-06T19:31:20.737Z,20.00
2018-09-06T19:33:49.986Z,20.00
2018-09-06T19:36:22.645Z,19.90
2018-09-06T19:38:51.634Z,19.90
2018-09-06T19:41:21.106Z,19.90
2018-09-06T19:43:50.137Z,19.90
2018-09-06T19:46:19.120Z,19.80
2018-09-06T19:48:48.186Z,19.80
2018-09-06T19:51:17.140Z,19.80
2018-09-06T19:53:46.155Z,19.70
2018-09-06T19:56:15.171Z,19.70
2018-09-06T19:58:44.312Z,19.70
2018-09-06T20:01:13.296Z,19.70
2018-09-06T20:03:42.264Z,19.70
2018-09-06T20:06:11.346Z,19.70
2018-09-06T20:08:40.386Z,19.70
2018-09-06T20:11:09.359Z,19.60
2018-09-06T20:13:38.349Z,19.60
2018-09-06T20:16:07.405Z,19.50
2018-09-06T20:18:36.454Z,19.50
2018-09-06T20:21:05.486Z,19.50
2018-09-06T20:23:34.454Z,19.50
2018-09-06T20:26:03.537Z,19.60
2018-09-06T20:28:32.494Z,19.60
2018-09-06T20:31:01.547Z,19.60
2018-09-06T20:33:31.375Z,19.50
2018-09-06T20:36:00.369Z,19.50
2018-09-06T20:38:29.817Z,19.60
2018-09-06T20:41:00.961Z,19.50
2018-09-06T20:43:29.916Z,19.50
2018-09-06T20:45:58.911Z,19.50
2018-09-06T20:48:27.872Z,19.50
2018-09-06T20:50:56.895Z,19.50
2018-09-06T20:53:26.710Z,19.50
2018-09-06T20:55:57.085Z,19.50
2018-09-06T20:58:26.398Z,19.50
2018-09-06T21:00:56.574Z,19.40
2018-09-06T21:03:25.537Z,19.40
2018-09-06T21:05:54.554Z,19.40
2018-09-06T21:08:24.594Z,19.40
2018-09-06T21:10:55.299Z,19.40
2018-09-06T21:13:24.293Z,19.30
2018-09-06T21:15:53.291Z,19.40
2018-09-06T21:18:22.295Z,19.30
2018-09-06T21:20:51.294Z,19.40
2018-09-06T21:23:20.920Z,19.40
2018-09-06T21:25:52.255Z,19.40
2018-09-06T21:28:21.461Z,19.30
2018-09-06T21:30:50.509Z,19.30
2018-09-06T21:33:19.524Z,19.30
2018-09-06T21:35:48.530Z,19.30
2018-09-06T21:38:17.496Z,19.30
2018-09-06T21:40:46.562Z,19.30
2018-09-06T21:43:15.597Z,19.20
2018-09-06T21:45:44.589Z,19.20
2018-09-06T21:48:13.562Z,19.20
2018-09-06T21:50:42.597Z,19.20
2018-09-06T21:53:12.596Z,19.20
2018-09-06T21:55:48.193Z,19.20
2018-09-06T21:58:17.805Z,19.30
2018-09-06T22:00:46.966Z,19.20
2018-09-06T22:03:21.279Z,19.20
2018-09-06T22:05:50.277Z,19.30
2018-09-06T22:08:20.013Z,19.30
2018-09-06T22:10:49.074Z,19.30
2018-09-06T22:13:19.461Z,19.20
2018-09-06T22:15:50.839Z,19.20
2018-09-06T22:18:19.833Z,19.20
2018-09-06T22:20:48.818Z,19.20
2018-09-06T22:23:18.069Z,19.20
2018-09-06T22:25:47.104Z,19.20
2018-09-06T22:28:16.172Z,19.00
2018-09-06T22:30:45.138Z,19.00
2018-09-06T22:33:14.154Z,19.00
2018-09-06T22:35:43.140Z,19.00
2018-09-06T22:38:12.162Z,19.00
2018-09-06T22:40:41.158Z,19.00
2018-09-06T22:43:10.157Z,19.00
2018-09-06T22:45:39.157Z,19.00
2018-09-06T22:48:08.218Z,19.00
2018-09-06T22:50:37.225Z,19.10
2018-09-06T22:53:06.260Z,19.10
2018-09-06T22:55:35.262Z,19.10
2018-09-06T22:58:04.346Z,19.10
2018-09-06T23:00:33.345Z,19.10
2018-09-06T23:03:07.892Z,19.00
2018-09-06T23:05:36.856Z,19.00
2018-09-06T23:08:05.912Z,19.00
2018-09-06T23:10:34.966Z,18.90
2018-09-06T23:13:03.986Z,18.90
2018-09-06T23:15:32.997Z,18.90
2018-09-06T23:18:02.058Z,18.80
2018-09-06T23:20:31.025Z,18.90
2018-09-06T23:23:00.088Z,18.90
2018-09-06T23:25:29.108Z,18.90
2018-09-06T23:27:58.092Z,18.90
2018-09-06T23:30:27.069Z,18.90
2018-09-06T23:32:56.941Z,18.90
2018-09-06T23:35:25.920Z,18.90
2018-09-06T23:37:55.717Z,18.90
2018-09-06T23:40:24.707Z,18.90
2018-09-06T23:42:53.729Z,18.90
2018-09-06T23:45:22.718Z,18.80
2018-09-06T23:47:51.721Z,18.80
2018-09-06T23:50:20.720Z,18.80
2018-09-06T23:52:49.767Z,18.80
2018-09-06T23:55:18.787Z,18.80
2018-09-06T23:57:47.754Z,18.80
